sensor_id;sensor_type;location;lat;lon;timestamp;pressure;altitude;pressure_sealevel;temperature;humidity
20145;BME280;10233;50.814;6.590;2022-10-31T00:00:59;100685.97;;;15.18;100.00
20145;BME280;10233;50.814;6.590;2022-10-31T00:01:59;100686.78;;;15.19;100.00
20145;BME280;10233;50.814;6.590;2022-10-31T00:03:00;100685.78;;;15.20;100.00
20145;BME280;10233;50.814;6.590;2022-10-31T00:04:00;100688.81;;;15.23;100.00
20145;BME280;10233;50.814;6.590;2022-10-31T00:05:01;100680.78;;;15.23;100.00
20145;BME280;10233;50.814;6.590;2022-10-31T00:06:01;100678.91;;;15.24;100.00
20145;BME280;10233;50.814;6.590;2022-10-31T00:07:01;100674.38;;;15.24;100.00
20145;BME280;10233;50.814;6.590;2022-10-31T00:08:02;100678.31;;;15.22;100.00
20145;BME280;10233;50.814;6.590;2022-10-31T00:09:04;100678.91;;;15.24;100.00
20145;BME280;10233;50.814;6.590;2022-10-31T00:10:05;100672.06;;;15.28;100.00
20145;BME280;10233;50.814;6.590;2022-10-31T00:11:10;100657.25;;;15.25;100.00
20145;BME280;10233;50.814;6.590;2022-10-31T00:12:10;100657.09;;;15.20;100.00
20145;BME280;10233;50.814;6.590;2022-10-31T00:13:12;100657.78;;;15.16;100.00
20145;BME280;10233;50.814;6.590;2022-10-31T00:14:13;100671.47;;;15.26;100.00
20145;BME280;10233;50.814;6.590;2022-10-31T00:15:13;100690.03;;;15.27;100.00
20145;BME280;10233;50.814;6.590;2022-10-31T00:16:21;100700.03;;;15.38;100.00
20145;BME280;10233;50.814;6.590;2022-10-31T00:17:22;100705.19;;;15.40;100.00
20145;BME280;10233;50.814;6.590;2022-10-31T00:18:23;100699.44;;;15.36;100.00
20145;BME280;10233;50.814;6.590;2022-10-31T00:19:23;100696.56;;;15.31;100.00
20145;BME280;10233;50.814;6.590;2022-10-31T00:20:23;100697.19;;;15.33;100.00
20145;BME280;10233;50.814;6.590;2022-10-31T00:21:24;100699.59;;;15.41;100.00
20145;BME280;10233;50.814;6.590;2022-10-31T00:22:25;100699.44;;;15.36;100.00
20145;BME280;10233;50.814;6.590;2022-10-31T00:23:25;100697.44;;;15.25;100.00
20145;BME280;10233;50.814;6.590;2022-10-31T00:24:26;100699.47;;;15.30;100.00
20145;BME280;10233;50.814;6.590;2022-10-31T00:25:27;100702.00;;;15.25;100.00
20145;BME280;10233;50.814;6.590;2022-10-31T00:26:30;100710.69;;;15.20;100.00
20145;BME280;10233;50.814;6.590;2022-10-31T00:27:32;100701.38;;;15.23;100.00
20145;BME280;10233;50.814;6.590;2022-10-31T00:28:32;100709.47;;;15.16;100.00
20145;BME280;10233;50.814;6.590;2022-10-31T00:29:33;100706.59;;;15.18;100.00
20145;BME280;10233;50.814;6.590;2022-10-31T00:30:34;100710.69;;;15.20;100.00
20145;BME280;10233;50.814;6.590;2022-10-31T00:31:34;100716.94;;;15.14;100.00
20145;BME280;10233;50.814;6.590;2022-10-31T00:32:36;100721.53;;;15.07;100.00
20145;BME280;10233;50.814;6.590;2022-10-31T00:33:38;100717.44;;;15.05;100.00
20145;BME280;10233;50.814;6.590;2022-10-31T00:34:39;100729.41;;;15.02;100.00
20145;BME280;10233;50.814;6.590;2022-10-31T00:35:39;100727.16;;;14.99;100.00
20145;BME280;10233;50.814;6.590;2022-10-31T00:36:39;100720.59;;;14.95;100.00
20145;BME280;10233;50.814;6.590;2022-10-31T00:37:41;100705.94;;;14.98;100.00
20145;BME280;10233;50.814;6.590;2022-10-31T00:38:42;100711.09;;;14.99;100.00
20145;BME280;10233;50.814;6.590;2022-10-31T00:39:42;100714.41;;;14.95;100.00
20145;BME280;10233;50.814;6.590;2022-10-31T00:40:45;100705.56;;;14.94;100.00
20145;BME280;10233;50.814;6.590;2022-10-31T00:41:45;100711.81;;;14.88;100.00
20145;BME280;10233;50.814;6.590;2022-10-31T00:42:46;100709.50;;;14.92;100.00
20145;BME280;10233;50.814;6.590;2022-10-31T00:43:46;100715.06;;;14.90;100.00
20145;BME280;10233;50.814;6.590;2022-10-31T00:44:47;100708.06;;;14.89;100.00
20145;BME280;10233;50.814;6.590;2022-10-31T00:45:48;100712.66;;;14.82;100.00
20145;BME280;10233;50.814;6.590;2022-10-31T00:46:48;100718.34;;;14.92;100.00
20145;BME280;10233;50.814;6.590;2022-10-31T00:47:48;100717.97;;;14.89;100.00
20145;BME280;10233;50.814;6.590;2022-10-31T00:48:49;100712.38;;;14.90;100.00
20145;BME280;10233;50.814;6.590;2022-10-31T00:49:50;100705.13;;;14.97;100.00
20145;BME280;10233;50.814;6.590;2022-10-31T00:50:50;100696.69;;;14.94;100.00
20145;BME280;10233;50.814;6.590;2022-10-31T00:51:51;100691.78;;;14.91;100.00
20145;BME280;10233;50.814;6.590;2022-10-31T00:52:51;100687.88;;;14.93;100.00
20145;BME280;10233;50.814;6.590;2022-10-31T00:53:52;100689.88;;;14.98;100.00
20145;BME280;10233;50.814;6.590;2022-10-31T00:54:52;100687.34;;;15.03;100.00
20145;BME280;10233;50.814;6.590;2022-10-31T00:55:52;100687.28;;;15.09;100.00
20145;BME280;10233;50.814;6.590;2022-10-31T00:56:53;100686.09;;;15.05;100.00
20145;BME280;10233;50.814;6.590;2022-10-31T00:57:53;100687.50;;;15.08;100.00
20145;BME280;10233;50.814;6.590;2022-10-31T00:58:54;100685.81;;;15.13;100.00
20145;BME280;10233;50.814;6.590;2022-10-31T00:59:55;100689.38;;;15.07;100.00
20145;BME280;10233;50.814;6.590;2022-10-31T01:00:55;100687.88;;;15.11;100.00
20145;BME280;10233;50.814;6.590;2022-10-31T01:01:56;100686.25;;;15.10;100.00
20145;BME280;10233;50.814;6.590;2022-10-31T01:02:57;100682.38;;;15.06;100.00
20145;BME280;10233;50.814;6.590;2022-10-31T01:03:59;100685.22;;;15.11;100.00
20145;BME280;10233;50.814;6.590;2022-10-31T01:05:00;100685.88;;;15.07;100.00
20145;BME280;10233;50.814;6.590;2022-10-31T01:06:10;100687.88;;;15.11;100.00
20145;BME280;10233;50.814;6.590;2022-10-31T01:07:11;100686.72;;;15.07;100.00
20145;BME280;10233;50.814;6.590;2022-10-31T01:08:14;100684.84;;;15.08;100.00
20145;BME280;10233;50.814;6.590;2022-10-31T01:09:14;100689.28;;;14.96;100.00
20145;BME280;10233;50.814;6.590;2022-10-31T01:10:15;100677.53;;;14.97;100.00
20145;BME280;10233;50.814;6.590;2022-10-31T01:11:20;100684.94;;;14.95;100.00
20145;BME280;10233;50.814;6.590;2022-10-31T01:12:21;100682.34;;;14.88;100.00
20145;BME280;10233;50.814;6.590;2022-10-31T01:13:21;100679.72;;;14.82;100.00
20145;BME280;10233;50.814;6.590;2022-10-31T01:14:21;100688.63;;;14.76;100.00
20145;BME280;10233;50.814;6.590;2022-10-31T01:15:22;100687.19;;;14.73;100.00
20145;BME280;10233;50.814;6.590;2022-10-31T01:16:25;100692.59;;;14.67;100.00
20145;BME280;10233;50.814;6.590;2022-10-31T01:17:26;100679.84;;;14.62;100.00
20145;BME280;10233;50.814;6.590;2022-10-31T01:18:27;100685.88;;;14.58;100.00
20145;BME280;10233;50.814;6.590;2022-10-31T01:19:28;100688.94;;;14.61;100.00
20145;BME280;10233;50.814;6.590;2022-10-31T01:20:31;100674.75;;;14.61;100.00
20145;BME280;10233;50.814;6.590;2022-10-31T01:21:31;100674.63;;;14.49;100.00
20145;BME280;10233;50.814;6.590;2022-10-31T01:22:33;100679.56;;;14.46;100.00
20145;BME280;10233;50.814;6.590;2022-10-31T01:23:35;100678.09;;;14.50;100.00
20145;BME280;10233;50.814;6.590;2022-10-31T01:24:36;100674.94;;;14.59;100.00
20145;BME280;10233;50.814;6.590;2022-10-31T01:25:36;100670.28;;;14.48;100.00
20145;BME280;10233;50.814;6.590;2022-10-31T01:26:37;100665.34;;;14.52;100.00
20145;BME280;10233;50.814;6.590;2022-10-31T01:27:37;100672.19;;;14.41;100.00
20145;BME280;10233;50.814;6.590;2022-10-31T01:28:51;100662.56;;;14.34;100.00
20145;BME280;10233;50.814;6.590;2022-10-31T01:29:52;100657.69;;;14.24;100.00
20145;BME280;10233;50.814;6.590;2022-10-31T01:30:52;100666.31;;;14.26;100.00
20145;BME280;10233;50.814;6.590;2022-10-31T01:31:53;100662.03;;;14.12;100.00
20145;BME280;10233;50.814;6.590;2022-10-31T01:32:54;100662.91;;;14.06;100.00
20145;BME280;10233;50.814;6.590;2022-10-31T01:33:55;100663.69;;;14.13;100.00
20145;BME280;10233;50.814;6.590;2022-10-31T01:34:56;100666.63;;;14.05;100.00
20145;BME280;10233;50.814;6.590;2022-10-31T01:35:56;100669.16;;;13.87;100.00
20145;BME280;10233;50.814;6.590;2022-10-31T01:36:57;100669.34;;;13.92;100.00
20145;BME280;10233;50.814;6.590;2022-10-31T01:37:57;100674.13;;;13.84;100.00
20145;BME280;10233;50.814;6.590;2022-10-31T01:39:02;100672.69;;;13.81;100.00
20145;BME280;10233;50.814;6.590;2022-10-31T01:40:03;100666.72;;;13.79;100.00
20145;BME280;10233;50.814;6.590;2022-10-31T01:41:04;100670.25;;;13.73;100.00
20145;BME280;10233;50.814;6.590;2022-10-31T01:42:05;100670.06;;;13.68;100.00
20145;BME280;10233;50.814;6.590;2022-10-31T01:43:11;100662.63;;;13.70;100.00
20145;BME280;10233;50.814;6.590;2022-10-31T01:45:16;100660.97;;;13.82;100.00
20145;BME280;10233;50.814;6.590;2022-10-31T01:46:22;100658.53;;;13.74;100.00
20145;BME280;10233;50.814;6.590;2022-10-31T01:47:31;100662.44;;;13.72;100.00
20145;BME280;10233;50.814;6.590;2022-10-31T01:48:32;100663.09;;;13.67;100.00
20145;BME280;10233;50.814;6.590;2022-10-31T01:49:46;100665.75;;;13.67;100.00
20145;BME280;10233;50.814;6.590;2022-10-31T01:50:50;100659.78;;;13.65;100.00
20145;BME280;10233;50.814;6.590;2022-10-31T01:51:55;100666.56;;;13.68;100.00
20145;BME280;10233;50.814;6.590;2022-10-31T01:52:56;100663.28;;;13.66;100.00
20145;BME280;10233;50.814;6.590;2022-10-31T01:54:02;100664.34;;;13.65;100.00
20145;BME280;10233;50.814;6.590;2022-10-31T01:56:10;100669.66;;;13.65;100.00
20145;BME280;10233;50.814;6.590;2022-10-31T01:57:13;100666.75;;;13.73;100.00
20145;BME280;10233;50.814;6.590;2022-10-31T01:58:21;100670.91;;;13.62;100.00
20145;BME280;10233;50.814;6.590;2022-10-31T01:59:24;100665.19;;;13.59;100.00
20145;BME280;10233;50.814;6.590;2022-10-31T02:00:27;100670.91;;;13.62;100.00
20145;BME280;10233;50.814;6.590;2022-10-31T02:01:28;100675.88;;;13.52;100.00
20145;BME280;10233;50.814;6.590;2022-10-31T02:02:30;100671.78;;;13.43;100.00
20145;BME280;10233;50.814;6.590;2022-10-31T02:03:32;100671.03;;;13.23;100.00
20145;BME280;10233;50.814;6.590;2022-10-31T02:04:33;100677.59;;;13.21;100.00
20145;BME280;10233;50.814;6.590;2022-10-31T02:05:35;100680.88;;;13.23;100.00
20145;BME280;10233;50.814;6.590;2022-10-31T02:06:38;100678.00;;;13.24;100.00
20145;BME280;10233;50.814;6.590;2022-10-31T02:07:55;100683.13;;;13.19;100.00
20145;BME280;10233;50.814;6.590;2022-10-31T02:09:04;100675.53;;;13.16;100.00
20145;BME280;10233;50.814;6.590;2022-10-31T02:10:07;100682.09;;;13.14;100.00
20145;BME280;10233;50.814;6.590;2022-10-31T02:11:08;100678.84;;;13.12;100.00
20145;BME280;10233;50.814;6.590;2022-10-31T02:12:11;100679.88;;;13.17;100.00
20145;BME280;10233;50.814;6.590;2022-10-31T02:13:12;100678.84;;;13.18;100.00
20145;BME280;10233;50.814;6.590;2022-10-31T02:14:24;100682.50;;;13.30;100.00
20145;BME280;10233;50.814;6.590;2022-10-31T02:15:26;100678.38;;;13.28;100.00
20145;BME280;10233;50.814;6.590;2022-10-31T02:16:27;100676.31;;;13.36;100.00
20145;BME280;10233;50.814;6.590;2022-10-31T02:17:29;100671.81;;;13.37;100.00
20145;BME280;10233;50.814;6.590;2022-10-31T02:18:31;100675.13;;;13.32;100.00
20145;BME280;10233;50.814;6.590;2022-10-31T02:20:54;100687.84;;;13.30;100.00
20145;BME280;10233;50.814;6.590;2022-10-31T02:22:04;100690.31;;;13.32;100.00
20145;BME280;10233;50.814;6.590;2022-10-31T02:24:43;100681.06;;;13.34;100.00
20145;BME280;10233;50.814;6.590;2022-10-31T02:25:55;100686.41;;;13.34;100.00
20145;BME280;10233;50.814;6.590;2022-10-31T02:27:11;100688.88;;;13.29;100.00
20145;BME280;10233;50.814;6.590;2022-10-31T02:28:47;100684.56;;;13.35;100.00
20145;BME280;10233;50.814;6.590;2022-10-31T02:30:15;100680.06;;;13.16;100.00
20145;BME280;10233;50.814;6.590;2022-10-31T02:34:35;100682.13;;;13.01;100.00
20145;BME280;10233;50.814;6.590;2022-10-31T02:38:10;100687.28;;;13.02;100.00
20145;BME280;10233;50.814;6.590;2022-10-31T02:39:37;100689.50;;;13.18;100.00
20145;BME280;10233;50.814;6.590;2022-10-31T02:40:57;100681.72;;;13.10;100.00
20145;BME280;10233;50.814;6.590;2022-10-31T02:42:57;100674.53;;;13.11;100.00
20145;BME280;10233;50.814;6.590;2022-10-31T02:44:07;100679.03;;;13.10;100.00
20145;BME280;10233;50.814;6.590;2022-10-31T02:46:47;100676.38;;;13.10;100.00
20145;BME280;10233;50.814;6.590;2022-10-31T02:47:53;100671.03;;;13.10;100.00
20145;BME280;10233;50.814;6.590;2022-10-31T02:49:02;100672.47;;;13.13;100.00
20145;BME280;10233;50.814;6.590;2022-10-31T02:50:14;100666.91;;;13.14;100.00
20145;BME280;10233;50.814;6.590;2022-10-31T02:51:18;100665.69;;;13.10;100.00
20145;BME280;10233;50.814;6.590;2022-10-31T02:53:19;100672.66;;;13.11;100.00
20145;BME280;10233;50.814;6.590;2022-10-31T02:54:25;100667.75;;;13.08;100.00
20145;BME280;10233;50.814;6.590;2022-10-31T02:56:35;100679.88;;;13.11;100.00
20145;BME280;10233;50.814;6.590;2022-10-31T02:57:37;100679.69;;;13.06;100.00
20145;BME280;10233;50.814;6.590;2022-10-31T02:59:01;100681.72;;;13.04;100.00
20145;BME280;10233;50.814;6.590;2022-10-31T03:00:06;100679.28;;;13.02;100.00
20145;BME280;10233;50.814;6.590;2022-10-31T03:03:04;100680.06;;;13.22;100.00
20145;BME280;10233;50.814;6.590;2022-10-31T03:05:48;100678.00;;;13.24;100.00
20145;BME280;10233;50.814;6.590;2022-10-31T03:06:56;100681.84;;;13.48;100.00
20145;BME280;10233;50.814;6.590;2022-10-31T03:08:06;100675.91;;;13.46;100.00
20145;BME280;10233;50.814;6.590;2022-10-31T03:09:32;100684.78;;;13.27;100.00
20145;BME280;10233;50.814;6.590;2022-10-31T03:10:44;100680.25;;;13.27;100.00
20145;BME280;10233;50.814;6.590;2022-10-31T03:12:07;100679.63;;;13.25;100.00
20145;BME280;10233;50.814;6.590;2022-10-31T03:14:35;100681.09;;;13.15;100.00
20145;BME280;10233;50.814;6.590;2022-10-31T03:15:42;100682.34;;;13.06;100.00
20145;BME280;10233;50.814;6.590;2022-10-31T03:16:50;100689.13;;;13.02;100.00
20145;BME280;10233;50.814;6.590;2022-10-31T03:18:10;100687.03;;;12.91;100.00
20145;BME280;10233;50.814;6.590;2022-10-31T03:19:29;100681.72;;;12.97;100.00
20145;BME280;10233;50.814;6.590;2022-10-31T03:20:45;100688.28;;;13.01;100.00
20145;BME280;10233;50.814;6.590;2022-10-31T03:21:52;100688.28;;;13.01;100.00
20145;BME280;10233;50.814;6.590;2022-10-31T03:22:57;100678.41;;;12.95;100.00
20145;BME280;10233;50.814;6.590;2022-10-31T03:23:59;100685.41;;;13.03;100.00
20145;BME280;10233;50.814;6.590;2022-10-31T03:25:02;100683.56;;;13.03;100.00
20145;BME280;10233;50.814;6.590;2022-10-31T03:26:06;100683.78;;;13.02;100.00
20145;BME280;10233;50.814;6.590;2022-10-31T03:27:10;100681.94;;;13.02;100.00
20145;BME280;10233;50.814;6.590;2022-10-31T03:28:14;100676.81;;;13.07;100.00
20145;BME280;10233;50.814;6.590;2022-10-31T03:29:18;100679.03;;;13.17;100.00
20145;BME280;10233;50.814;6.590;2022-10-31T03:30:22;100684.16;;;13.18;100.00
20145;BME280;10233;50.814;6.590;2022-10-31T03:31:33;100683.13;;;13.19;100.00
20145;BME280;10233;50.814;6.590;2022-10-31T03:32:49;100675.72;;;13.28;100.00
20145;BME280;10233;50.814;6.590;2022-10-31T03:33:51;100678.38;;;13.34;100.00
20145;BME280;10233;50.814;6.590;2022-10-31T03:34:56;100676.13;;;13.31;100.00
20145;BME280;10233;50.814;6.590;2022-10-31T03:36:00;100664.00;;;13.35;100.00
20145;BME280;10233;50.814;6.590;2022-10-31T03:37:04;100667.28;;;13.37;100.00
20145;BME280;10233;50.814;6.590;2022-10-31T03:38:08;100662.97;;;13.36;100.00
20145;BME280;10233;50.814;6.590;2022-10-31T03:39:13;100662.75;;;13.38;100.00
20145;BME280;10233;50.814;6.590;2022-10-31T03:40:19;100664.19;;;13.40;100.00
20145;BME280;10233;50.814;6.590;2022-10-31T03:41:23;100658.44;;;13.43;100.00
20145;BME280;10233;50.814;6.590;2022-10-31T03:42:27;100654.72;;;13.44;100.00
20145;BME280;10233;50.814;6.590;2022-10-31T03:43:33;100654.34;;;13.41;100.00
20145;BME280;10233;50.814;6.590;2022-10-31T03:44:38;100654.13;;;13.49;100.00
20145;BME280;10233;50.814;6.590;2022-10-31T03:45:44;100656.59;;;13.44;100.00
20145;BME280;10233;50.814;6.590;2022-10-31T03:46:46;100659.69;;;13.41;100.00
20145;BME280;10233;50.814;6.590;2022-10-31T03:47:47;100659.28;;;13.44;100.00
20145;BME280;10233;50.814;6.590;2022-10-31T03:48:47;100650.63;;;13.48;100.00
20145;BME280;10233;50.814;6.590;2022-10-31T03:49:48;100655.34;;;13.46;100.00
20145;BME280;10233;50.814;6.590;2022-10-31T03:50:55;100658.63;;;13.48;100.00
20145;BME280;10233;50.814;6.590;2022-10-31T03:52:11;100658.84;;;13.47;100.00
20145;BME280;10233;50.814;6.590;2022-10-31T03:54:38;100665.00;;;13.54;100.00
20145;BME280;10233;50.814;6.590;2022-10-31T03:55:52;100661.31;;;13.42;100.00
20145;BME280;10233;50.814;6.590;2022-10-31T03:57:01;100664.38;;;13.45;100.00
20145;BME280;10233;50.814;6.590;2022-10-31T03:58:10;100662.53;;;13.46;100.00
20145;BME280;10233;50.814;6.590;2022-10-31T03:59:17;100661.50;;;13.53;100.00
20145;BME280;10233;50.814;6.590;2022-10-31T04:00:19;100667.28;;;13.44;100.00
20145;BME280;10233;50.814;6.590;2022-10-31T04:01:21;100669.94;;;13.44;100.00
20145;BME280;10233;50.814;6.590;2022-10-31T04:02:26;100668.09;;;13.44;100.00
20145;BME280;10233;50.814;6.590;2022-10-31T04:03:31;100661.72;;;13.45;100.00
20145;BME280;10233;50.814;6.590;2022-10-31T04:04:35;100659.47;;;13.42;100.00
20145;BME280;10233;50.814;6.590;2022-10-31T04:05:39;100663.97;;;13.42;100.00
20145;BME280;10233;50.814;6.590;2022-10-31T04:06:42;100661.13;;;13.37;100.00
20145;BME280;10233;50.814;6.590;2022-10-31T04:07:47;100659.88;;;13.33;100.00
20145;BME280;10233;50.814;6.590;2022-10-31T04:08:53;100667.91;;;13.39;100.00
20145;BME280;10233;50.814;6.590;2022-10-31T04:09:57;100663.22;;;13.22;100.00
20145;BME280;10233;50.814;6.590;2022-10-31T04:11:02;100667.50;;;13.29;100.00
20145;BME280;10233;50.814;6.590;2022-10-31T04:12:06;100665.03;;;13.28;100.00
20145;BME280;10233;50.814;6.590;2022-10-31T04:13:36;100667.31;;;13.24;100.00
20145;BME280;10233;50.814;6.590;2022-10-31T04:14:46;100661.97;;;13.31;100.00
20145;BME280;10233;50.814;6.590;2022-10-31T04:15:49;100667.72;;;13.28;100.00
20145;BME280;10233;50.814;6.590;2022-10-31T04:16:53;100665.69;;;13.23;100.00
20145;BME280;10233;50.814;6.590;2022-10-31T04:18:00;100665.88;;;13.15;100.00
20145;BME280;10233;50.814;6.590;2022-10-31T04:19:02;100662.59;;;13.20;100.00
20145;BME280;10233;50.814;6.590;2022-10-31T04:20:03;100666.66;;;13.29;100.00
20145;BME280;10233;50.814;6.590;2022-10-31T04:21:06;100665.88;;;13.28;100.00
20145;BME280;10233;50.814;6.590;2022-10-31T04:22:07;100659.28;;;13.31;100.00
20145;BME280;10233;50.814;6.590;2022-10-31T04:23:23;100657.44;;;13.31;100.00
20145;BME280;10233;50.814;6.590;2022-10-31T04:24:25;100661.53;;;13.34;100.00
20145;BME280;10233;50.814;6.590;2022-10-31T04:25:26;100666.06;;;13.33;100.00
20145;BME280;10233;50.814;6.590;2022-10-31T04:26:28;100666.53;;;13.17;100.00
20145;BME280;10233;50.814;6.590;2022-10-31T04:27:28;100663.84;;;13.11;100.00
20145;BME280;10233;50.814;6.590;2022-10-31T04:28:29;100666.91;;;13.14;100.00
20145;BME280;10233;50.814;6.590;2022-10-31T04:29:31;100670.81;;;13.25;100.00
20145;BME280;10233;50.814;6.590;2022-10-31T04:30:32;100669.78;;;13.26;100.00
20145;BME280;10233;50.814;6.590;2022-10-31T04:31:32;100663.81;;;13.30;100.00
20145;BME280;10233;50.814;6.590;2022-10-31T04:32:33;100662.16;;;13.36;100.00
20145;BME280;10233;50.814;6.590;2022-10-31T04:33:33;100660.09;;;13.31;100.00
20145;BME280;10233;50.814;6.590;2022-10-31T04:34:36;100657.03;;;13.28;100.00
20145;BME280;10233;50.814;6.590;2022-10-31T04:35:38;100659.09;;;13.32;100.00
20145;BME280;10233;50.814;6.590;2022-10-31T04:36:39;100650.47;;;13.24;100.00
20145;BME280;10233;50.814;6.590;2022-10-31T04:37:39;100659.50;;;13.23;100.00
20145;BME280;10233;50.814;6.590;2022-10-31T04:38:40;100652.53;;;13.28;100.00
20145;BME280;10233;50.814;6.590;2022-10-31T04:39:51;100647.75;;;13.37;100.00
20145;BME280;10233;50.814;6.590;2022-10-31T04:41:10;100648.59;;;13.44;100.00
20145;BME280;10233;50.814;6.590;2022-10-31T04:42:29;100658.44;;;13.43;100.00
20145;BME280;10233;50.814;6.590;2022-10-31T04:43:33;100650.41;;;13.43;100.00
20145;BME280;10233;50.814;6.590;2022-10-31T04:44:34;100647.72;;;13.56;100.00
20145;BME280;10233;50.814;6.590;2022-10-31T04:45:35;100650.81;;;13.53;100.00
20145;BME280;10233;50.814;6.590;2022-10-31T04:46:36;100642.19;;;13.51;100.00
20145;BME280;10233;50.814;6.590;2022-10-31T04:47:37;100645.28;;;13.48;100.00
20145;BME280;10233;50.814;6.590;2022-10-31T04:48:37;100647.94;;;13.48;100.00
20145;BME280;10233;50.814;6.590;2022-10-31T04:49:40;100649.97;;;13.53;100.00
20145;BME280;10233;50.814;6.590;2022-10-31T04:50:42;100651.19;;;13.57;100.00
20145;BME280;10233;50.814;6.590;2022-10-31T04:51:42;100651.25;;;13.44;100.00
20145;BME280;10233;50.814;6.590;2022-10-31T04:52:44;100647.38;;;13.33;100.00
20145;BME280;10233;50.814;6.590;2022-10-31T04:53:47;100655.19;;;13.28;100.00
20145;BME280;10233;50.814;6.590;2022-10-31T04:55:14;100657.47;;;13.25;100.00
20145;BME280;10233;50.814;6.590;2022-10-31T04:56:26;100659.09;;;13.19;100.00
20145;BME280;10233;50.814;6.590;2022-10-31T04:57:32;100654.41;;;13.15;100.00
20145;BME280;10233;50.814;6.590;2022-10-31T04:58:35;100652.53;;;13.28;100.00
20145;BME280;10233;50.814;6.590;2022-10-31T04:59:38;100653.75;;;13.26;100.00
20145;BME280;10233;50.814;6.590;2022-10-31T05:00:38;100661.19;;;13.17;100.00
20145;BME280;10233;50.814;6.590;2022-10-31T05:01:38;100664.25;;;13.08;100.00
20145;BME280;10233;50.814;6.590;2022-10-31T05:02:49;100660.75;;;13.14;100.00
20145;BME280;10233;50.814;6.590;2022-10-31T05:03:51;100658.06;;;13.14;100.00
20145;BME280;10233;50.814;6.590;2022-10-31T05:04:51;100657.06;;;13.15;100.00
20145;BME280;10233;50.814;6.590;2022-10-31T05:05:52;100649.22;;;13.26;100.00
20145;BME280;10233;50.814;6.590;2022-10-31T05:06:53;100651.28;;;13.18;100.00
20145;BME280;10233;50.814;6.590;2022-10-31T05:07:54;100655.84;;;13.11;100.00
20145;BME280;10233;50.814;6.590;2022-10-31T05:08:58;100646.81;;;13.05;100.00
20145;BME280;10233;50.814;6.590;2022-10-31T05:09:58;100650.91;;;13.14;100.00
20145;BME280;10233;50.814;6.590;2022-10-31T05:11:00;100642.69;;;13.16;100.00
20145;BME280;10233;50.814;6.590;2022-10-31T05:12:02;100637.16;;;13.17;100.00
20145;BME280;10233;50.814;6.590;2022-10-31T05:13:31;100639.63;;;13.06;100.00
20145;BME280;10233;50.814;6.590;2022-10-31T05:14:47;100651.34;;;12.98;100.00
20145;BME280;10233;50.814;6.590;2022-10-31T05:16:06;100634.09;;;13.01;100.00
20145;BME280;10233;50.814;6.590;2022-10-31T05:17:27;100636.94;;;12.93;100.00
20145;BME280;10233;50.814;6.590;2022-10-31T05:19:02;100641.44;;;12.92;100.00
20145;BME280;10233;50.814;6.590;2022-10-31T05:20:03;100640.25;;;12.88;100.00
20145;BME280;10233;50.814;6.590;2022-10-31T05:21:33;100636.09;;;12.92;100.00
20145;BME280;10233;50.814;6.590;2022-10-31T05:22:41;100632.44;;;12.87;100.00
20145;BME280;10233;50.814;6.590;2022-10-31T05:23:41;100634.28;;;12.86;100.00
20145;BME280;10233;50.814;6.590;2022-10-31T05:24:42;100639.00;;;12.97;100.00
20145;BME280;10233;50.814;6.590;2022-10-31T05:25:44;100637.16;;;13.04;100.00
20145;BME280;10233;50.814;6.590;2022-10-31T05:26:46;100636.53;;;12.96;100.00
20145;BME280;10233;50.814;6.590;2022-10-31T05:27:49;100636.56;;;13.02;100.00
20145;BME280;10233;50.814;6.590;2022-10-31T05:28:51;100637.34;;;12.90;100.00
20145;BME280;10233;50.814;6.590;2022-10-31T05:29:51;100637.78;;;12.87;100.00
20145;BME280;10233;50.814;6.590;2022-10-31T05:30:52;100636.72;;;12.81;100.00
20145;BME280;10233;50.814;6.590;2022-10-31T05:31:55;100635.31;;;12.85;100.00
20145;BME280;10233;50.814;6.590;2022-10-31T05:33:15;100632.03;;;12.83;100.00
20145;BME280;10233;50.814;6.590;2022-10-31T05:34:36;100634.47;;;12.91;100.00
20145;BME280;10233;50.814;6.590;2022-10-31T05:35:57;100631.00;;;12.91;100.00
20145;BME280;10233;50.814;6.590;2022-10-31T05:36:57;100637.78;;;12.93;100.00
20145;BME280;10233;50.814;6.590;2022-10-31T05:37:59;100633.66;;;12.84;100.00
20145;BME280;10233;50.814;6.590;2022-10-31T05:38:59;100637.97;;;12.85;100.00
20145;BME280;10233;50.814;6.590;2022-10-31T05:40:07;100637.38;;;12.83;100.00
20145;BME280;10233;50.814;6.590;2022-10-31T05:41:08;100635.91;;;12.87;100.00
20145;BME280;10233;50.814;6.590;2022-10-31T05:42:09;100641.03;;;12.82;100.00
20145;BME280;10233;50.814;6.590;2022-10-31T05:43:10;100632.84;;;12.84;100.00
20145;BME280;10233;50.814;6.590;2022-10-31T05:44:11;100635.31;;;12.85;100.00
20145;BME280;10233;50.814;6.590;2022-10-31T05:45:24;100628.31;;;12.84;100.00
20145;BME280;10233;50.814;6.590;2022-10-31T05:46:30;100624.44;;;12.80;100.00
20145;BME280;10233;50.814;6.590;2022-10-31T05:47:39;100629.56;;;12.82;100.00
20145;BME280;10233;50.814;6.590;2022-10-31T05:48:58;100631.19;;;12.83;100.00
20145;BME280;10233;50.814;6.590;2022-10-31T05:50:17;100633.25;;;13.00;100.00
20145;BME280;10233;50.814;6.590;2022-10-31T05:51:33;100631.41;;;12.94;100.00
20145;BME280;10233;50.814;6.590;2022-10-31T05:52:34;100633.44;;;12.92;100.00
20145;BME280;10233;50.814;6.590;2022-10-31T05:53:41;100632.84;;;12.90;100.00
20145;BME280;10233;50.814;6.590;2022-10-31T05:54:42;100624.03;;;12.83;100.00
20145;BME280;10233;50.814;6.590;2022-10-31T05:55:43;100624.03;;;12.83;100.00
20145;BME280;10233;50.814;6.590;2022-10-31T05:56:47;100627.28;;;12.85;100.00